Time;durP1;ratioP1;P1;durP2;ratioP2;P2;SDS_P1;SDS_P2;PMS_P1;PMS_P2;Temp;Humidity;BMP_temperature;BMP_pressure;BME280_temperature;BME280_humidity;BME280_pressure;Samples;Min_cycle;Max_cycle;Signal;HPM_P1;HPM_P2
2021/11/30 00:01:38;;;;;;;20.45;9.75;;;;;;;2.98;95.52;98554.13;5063472;28;20017;-69
2021/11/30 00:04:03;;;;;;;18.60;10.05;;;;;;;2.95;95.75;98559.31;5063073;28;20016;-69
2021/11/30 00:06:33;;;;;;;21.15;10.68;;;;;;;2.94;95.71;98557.53;5063076;28;20025;-69
2021/11/30 00:09:09;;;;;;;17.58;9.10;;;;;;;2.97;95.40;98562.75;5065511;28;20213;-69
2021/11/30 00:11:36;;;;;;;16.83;8.90;;;;;;;2.98;95.69;98559.34;5066792;28;20343;-69
2021/11/30 00:14:01;;;;;;;21.23;9.90;;;;;;;3.01;95.64;98569.72;5066724;28;20212;-69
2021/11/30 00:16:26;;;;;;;30.25;11.35;;;;;;;2.99;95.35;98571.47;5066622;28;20044;-69
2021/11/30 00:18:52;;;;;;;22.85;9.70;;;;;;;2.94;95.49;98578.34;5066586;28;20375;-69
2021/11/30 00:21:17;;;;;;;19.58;10.27;;;;;;;2.93;95.75;98581.81;5066534;28;20025;-69
2021/11/30 00:23:43;;;;;;;17.55;9.57;;;;;;;2.92;95.96;98590.47;5066479;28;20056;-70
2021/11/30 00:26:08;;;;;;;23.58;9.65;;;;;;;2.92;96.06;98585.25;5066349;28;20025;-70
2021/11/30 00:28:34;;;;;;;24.15;10.60;;;;;;;2.92;96.19;98594.78;5066383;28;20029;-70
2021/11/30 00:30:59;;;;;;;22.83;10.40;;;;;;;2.95;96.36;98590.50;5066380;28;20029;-70
2021/11/30 00:33:24;;;;;;;21.35;10.38;;;;;;;2.90;96.08;98586.97;5066581;28;20028;-70
2021/11/30 00:35:51;;;;;;;22.52;10.57;;;;;;;2.97;95.97;98593.97;5066318;28;20359;-69
2021/11/30 00:38:17;;;;;;;24.13;10.13;;;;;;;2.96;95.45;98587.03;5066201;28;20029;-69
2021/11/30 00:40:44;;;;;;;21.30;10.35;;;;;;;2.95;95.55;98584.41;5066159;28;20040;-69
2021/11/30 00:43:17;;;;;;;23.85;11.02;;;;;;;2.95;95.91;98579.22;5066104;28;20052;-69
2021/11/30 00:45:52;;;;;;;20.48;9.73;;;;;;;3.00;95.48;98587.94;5065986;28;20096;-69
2021/11/30 00:48:21;;;;;;;24.02;10.25;;;;;;;2.95;95.36;98580.09;5066047;28;20092;-69
2021/11/30 00:50:47;;;;;;;24.00;10.70;;;;;;;2.94;95.76;98573.13;5065984;28;20320;-69
2021/11/30 00:53:12;;;;;;;25.33;11.32;;;;;;;2.91;95.67;98578.31;5065946;28;20048;-69
2021/11/30 00:55:38;;;;;;;24.90;11.65;;;;;;;2.91;95.73;98578.31;5065905;28;20028;-69
2021/11/30 00:58:04;;;;;;;18.92;10.10;;;;;;;2.91;95.83;98578.31;5066101;28;20229;-69
2021/11/30 01:00:32;;;;;;;24.27;10.85;;;;;;;2.87;96.15;98579.13;5065828;28;20025;-69
2021/11/30 01:03:04;;;;;;;19.60;10.63;;;;;;;2.90;96.35;98581.78;5065706;28;20025;-69
2021/11/30 01:05:30;;;;;;;26.15;11.38;;;;;;;2.84;96.32;98571.31;5065745;28;20032;-69
2021/11/30 01:07:56;;;;;;;19.02;10.38;;;;;;;2.91;95.70;98567.91;5065569;28;20028;-69
2021/11/30 01:10:21;;;;;;;21.58;10.88;;;;;;;2.93;95.49;98565.31;5065854;28;20198;-69
2021/11/30 01:12:46;;;;;;;26.25;11.23;;;;;;;2.98;95.63;98569.72;5065545;28;20294;-69
2021/11/30 01:15:16;;;;;;;24.55;10.90;;;;;;;2.97;95.57;98578.38;5065495;28;20027;-69
2021/11/30 01:17:42;;;;;;;26.25;10.55;;;;;;;2.97;95.22;98587.91;5065352;28;20035;-69
2021/11/30 01:20:08;;;;;;;26.42;12.18;;;;;;;2.90;95.04;98581.78;5064931;28;20024;-70
2021/11/30 01:22:34;;;;;;;24.25;10.55;;;;;;;2.93;95.55;98581.81;5065398;28;20013;-69
2021/11/30 01:24:59;;;;;;;21.85;10.82;;;;;;;3.01;95.49;98574.06;5065367;28;20024;-69
2021/11/30 01:27:25;;;;;;;20.73;11.05;;;;;;;2.97;94.92;98573.16;5065236;28;20024;-69
2021/11/30 01:29:50;;;;;;;20.48;11.10;;;;;;;3.00;95.13;98567.16;5065252;28;20224;-69
2021/11/30 01:32:16;;;;;;;22.70;11.48;;;;;;;3.04;94.97;98576.72;5065208;28;20073;-69
2021/11/30 01:34:41;;;;;;;20.73;11.32;;;;;;;3.02;94.94;98578.41;5065205;28;20220;-69
2021/11/30 01:37:12;;;;;;;21.30;11.65;;;;;;;2.95;95.57;98580.09;5065102;28;20320;-69
2021/11/30 01:39:38;;;;;;;22.47;12.40;;;;;;;2.95;94.98;98579.22;5065145;28;20320;-69
2021/11/30 01:42:03;;;;;;;26.15;12.30;;;;;;;3.00;95.93;98580.16;5065229;28;20257;-69
2021/11/30 01:44:37;;;;;;;27.55;12.43;;;;;;;2.98;95.77;98577.53;5064989;28;20044;-69
2021/11/30 01:49:47;;;;;;;25.33;12.00;;;;;;;2.92;95.56;98592.19;5064896;28;20051;-69
2021/11/30 01:52:13;;;;;;;25.55;13.27;;;;;;;2.92;95.92;98579.19;5064819;28;20024;-69
2021/11/30 01:54:40;;;;;;;29.92;12.88;;;;;;;2.96;95.42;98581.84;5065013;28;20198;-69
2021/11/30 01:57:07;;;;;;;20.98;11.95;;;;;;;2.96;95.60;98581.84;5064704;28;20216;-69
2021/11/30 01:59:33;;;;;;;23.50;12.68;;;;;;;2.97;94.84;98570.56;5064697;28;20077;-69
2021/11/30 02:01:58;;;;;;;29.02;12.15;;;;;;;2.96;95.36;98574.03;5064674;28;20320;-69
2021/11/30 02:04:23;;;;;;;23.63;11.95;;;;;;;3.03;95.62;98575.81;5064512;28;20051;-69
2021/11/30 02:06:49;;;;;;;24.15;11.75;;;;;;;2.99;95.09;98571.47;5064725;28;20032;-69
2021/11/30 02:09:14;;;;;;;24.27;11.40;;;;;;;2.91;95.08;98578.31;5064801;28;20217;-69
2021/11/30 02:11:39;;;;;;;28.63;11.43;;;;;;;2.96;95.21;98581.84;5064523;28;20217;-69
2021/11/30 02:14:05;;;;;;;26.95;12.88;;;;;;;2.94;95.56;98578.34;5064435;28;20396;-69
2021/11/30 02:16:30;;;;;;;19.73;11.00;;;;;;;2.92;95.04;98579.19;5064239;28;20337;-69
2021/11/30 02:19:00;;;;;;;28.38;12.77;;;;;;;2.90;95.38;98576.56;5064638;28;20036;-69
2021/11/30 02:21:26;;;;;;;22.02;11.60;;;;;;;2.96;95.14;98561.03;5064294;28;20025;-69
2021/11/30 02:23:59;;;;;;;25.80;12.35;;;;;;;2.97;95.45;98554.97;5064221;28;20367;-69
2021/11/30 02:26:24;;;;;;;22.02;11.75;;;;;;;2.97;95.49;98549.78;5064437;28;20336;-69
2021/11/30 02:28:51;;;;;;;21.27;12.25;;;;;;;2.94;95.60;98551.50;5064226;28;20020;-69
2021/11/30 02:31:19;;;;;;;20.98;10.95;;;;;;;2.91;95.01;98561.84;5064307;28;20021;-69
2021/11/30 02:33:44;;;;;;;26.60;11.68;;;;;;;2.97;95.16;98547.16;5064097;28;20040;-69
2021/11/30 02:36:26;;;;;;;22.38;10.98;;;;;;;2.95;94.57;98546.31;5064053;28;20030;-69
2021/11/30 02:38:53;;;;;;;22.38;11.45;;;;;;;2.95;94.89;98543.72;5064131;28;20082;-69
2021/11/30 02:41:20;;;;;;;26.15;12.30;;;;;;;3.00;95.08;98539.41;5064003;28;20056;-69
2021/11/30 02:43:45;;;;;;;23.98;12.77;;;;;;;2.94;94.91;98539.34;5064224;28;20066;-69
2021/11/30 02:46:25;;;;;;;22.10;12.25;;;;;;;2.87;95.56;98545.34;5063864;28;20260;-69
2021/11/30 02:48:50;;;;;;;27.70;12.23;;;;;;;2.90;95.49;98534.97;5072552;28;20032;-69
2021/11/30 02:51:15;;;;;;;27.75;13.55;;;;;;;2.95;95.90;98537.63;5083936;28;20024;-69
2021/11/30 02:53:41;;;;;;;29.23;13.63;;;;;;;2.97;95.38;98547.16;5083956;28;20328;-69
2021/11/30 02:56:06;;;;;;;20.80;12.82;;;;;;;2.99;94.98;98540.28;5083904;28;20343;-69
2021/11/30 02:58:31;;;;;;;26.48;13.68;;;;;;;2.92;95.60;98548.88;5083952;28;20020;-69
2021/11/30 03:00:58;;;;;;;28.88;12.80;;;;;;;2.91;95.68;98536.72;5083829;28;20083;-69
2021/11/30 03:03:26;;;;;;;33.55;14.40;;;;;;;2.92;95.80;98543.69;5083716;28;20020;-69
2021/11/30 03:05:51;;;;;;;25.27;11.98;;;;;;;2.94;95.30;98544.53;5065828;28;20220;-69
2021/11/30 03:08:16;;;;;;;30.35;11.85;;;;;;;2.94;95.43;98541.09;5063717;28;20041;-69
2021/11/30 03:10:42;;;;;;;33.35;13.38;;;;;;;2.96;95.58;98542.84;5063709;28;20021;-69
2021/11/30 03:13:07;;;;;;;24.20;11.88;;;;;;;2.98;95.60;98533.34;5063665;28;20025;-69
2021/11/30 03:15:32;;;;;;;24.65;12.10;;;;;;;3.08;95.54;98534.28;5063896;28;20087;-69
2021/11/30 03:17:59;;;;;;;21.50;12.30;;;;;;;3.03;94.80;98530.75;5063473;28;20112;-69
2021/11/30 03:20:24;;;;;;;25.67;12.35;;;;;;;3.00;95.04;98529.00;5063681;28;20017;-69
2021/11/30 03:22:49;;;;;;;26.00;13.77;;;;;;;3.01;94.55;98533.34;5063607;28;20028;-69
2021/11/30 03:25:16;;;;;;;24.83;12.90;;;;;;;3.00;95.10;98528.16;5063543;28;20075;-69
2021/11/30 03:27:42;;;;;;;30.35;13.45;;;;;;;3.01;94.41;98522.94;5063452;28;20044;-69
2021/11/30 03:30:10;;;;;;;28.88;14.60;;;;;;;3.04;94.27;98515.16;5063478;28;20324;-69
2021/11/30 03:35:19;;;;;;;30.27;14.05;;;;;;;2.91;94.95;98515.91;5063584;28;20397;-69
2021/11/30 03:37:44;;;;;;;24.73;13.07;;;;;;;2.99;95.40;98513.41;5063633;28;20017;-69
2021/11/30 03:40:11;;;;;;;28.02;12.82;;;;;;;3.00;95.21;98510.81;5063406;28;20025;-69
2021/11/30 03:42:38;;;;;;;30.30;12.77;;;;;;;2.95;95.46;98517.72;5063940;28;20025;-69
2021/11/30 03:45:04;;;;;;;29.27;13.32;;;;;;;2.98;94.96;98520.34;5067257;28;20028;-69
2021/11/30 03:47:30;;;;;;;24.52;12.70;;;;;;;2.94;94.92;98510.75;5067365;28;20333;-69
2021/11/30 03:49:55;;;;;;;26.60;12.68;;;;;;;3.01;94.78;98509.94;5067196;28;20035;-69
2021/11/30 03:52:20;;;;;;;21.60;11.75;;;;;;;3.01;94.55;98509.09;5067246;28;20340;-69
2021/11/30 03:54:45;;;;;;;25.30;12.70;;;;;;;2.93;94.33;98514.22;5067005;28;20025;-69
2021/11/30 03:57:11;;;;;;;27.10;13.85;;;;;;;2.94;94.51;98504.72;5066976;28;20024;-69
2021/11/30 03:59:36;;;;;;;28.55;14.02;;;;;;;2.93;94.59;98514.22;5066964;28;20087;-70
2021/11/30 04:02:02;;;;;;;23.52;13.15;;;;;;;2.83;95.02;98506.31;5066970;28;20025;-71
2021/11/30 04:04:31;;;;;;;27.55;12.98;;;;;;;2.87;95.19;98503.75;5066764;28;20127;-70
2021/11/30 04:06:56;;;;;;;27.17;12.77;;;;;;;2.87;95.05;98493.38;5067036;28;20025;-70
2021/11/30 04:09:23;;;;;;;32.70;14.18;;;;;;;2.85;95.10;98502.03;5066805;28;20084;-70
2021/11/30 04:11:49;;;;;;;30.98;14.85;;;;;;;2.89;95.27;98496.88;5074741;28;20300;-70
2021/11/30 04:14:16;;;;;;;32.88;13.45;;;;;;;2.88;95.09;98497.69;5086707;28;20377;-70
2021/11/30 04:16:42;;;;;;;33.35;14.05;;;;;;;2.79;95.47;98487.25;5086533;28;20332;-69
2021/11/30 04:19:07;;;;;;;25.90;14.05;;;;;;;2.80;95.58;98496.78;5085503;28;20020;-69
2021/11/30 04:21:33;;;;;;;29.10;13.38;;;;;;;2.74;95.35;98478.53;5086644;28;20032;-69
2021/11/30 04:23:58;;;;;;;29.85;13.95;;;;;;;2.78;96.13;98472.50;5086564;28;20324;-69
2021/11/30 04:26:24;;;;;;;27.92;13.05;;;;;;;2.74;95.88;98464.66;5086428;28;20039;-69
2021/11/30 04:28:50;;;;;;;22.25;12.18;;;;;;;2.74;95.69;98469.84;5086776;28;20024;-70
2021/11/30 04:31:15;;;;;;;30.33;12.50;;;;;;;2.66;96.04;98472.38;5086435;28;20070;-70
2021/11/30 04:33:41;;;;;;;24.08;12.85;;;;;;;2.62;96.89;98459.38;5086375;28;20024;-69
2021/11/30 04:36:07;;;;;;;26.42;11.98;;;;;;;2.55;97.12;98455.84;5086337;28;20320;-70
2021/11/30 04:38:34;;;;;;;24.63;12.63;;;;;;;2.45;97.19;98443.63;5086342;28;20087;-70
2021/11/30 04:40:59;;;;;;;24.63;12.93;;;;;;;2.45;97.46;98451.44;5086250;28;20025;-69
2021/11/30 04:43:32;;;;;;;25.80;12.40;;;;;;;2.49;97.72;98448.00;5086211;28;20078;-69
2021/11/30 04:46:00;;;;;;;25.55;13.13;;;;;;;2.44;98.08;98433.22;5086101;28;20313;-70
2021/11/30 04:48:26;;;;;;;26.95;12.65;;;;;;;2.46;97.48;98442.75;5084620;28;20021;-70
2021/11/30 04:50:53;;;;;;;27.95;12.77;;;;;;;2.40;98.05;98434.91;5085140;28;20375;-70
2021/11/30 04:53:24;;;;;;;25.20;12.73;;;;;;;2.43;97.88;98434.94;5085083;28;20062;-70
2021/11/30 04:55:51;;;;;;;21.65;12.23;;;;;;;2.42;98.25;98430.63;5083876;28;20048;-70
2021/11/30 04:58:16;;;;;;;23.58;12.45;;;;;;;2.40;98.25;98421.94;5085230;28;20216;-70
2021/11/30 05:00:42;;;;;;;28.50;13.57;;;;;;;2.33;98.39;98430.53;5074936;28;20033;-70
2021/11/30 05:03:07;;;;;;;25.10;12.32;;;;;;;2.35;98.34;98423.63;5044901;28;20025;-70
2021/11/30 05:05:33;;;;;;;20.48;11.80;;;;;;;2.40;98.47;98411.53;5060344;28;20088;-68
2021/11/30 05:07:58;;;;;;;27.30;12.88;;;;;;;2.51;98.40;98420.31;5065722;28;20193;-69
2021/11/30 05:10:24;;;;;;;24.83;13.07;;;;;;;2.35;98.13;98402.84;5065714;28;20084;-69
2021/11/30 05:12:49;;;;;;;30.98;12.75;;;;;;;2.35;98.53;98396.78;5065576;28;20035;-69
2021/11/30 05:15:15;;;;;;;21.20;11.88;;;;;;;2.30;98.70;98382.91;5065576;28;20350;-69
2021/11/30 05:17:41;;;;;;;24.55;11.77;;;;;;;2.25;98.62;98381.13;5065408;28;20380;-69
2021/11/30 05:20:08;;;;;;;24.95;12.82;;;;;;;2.23;99.36;98381.97;5065751;28;20327;-69
2021/11/30 05:22:34;;;;;;;26.50;13.38;;;;;;;2.23;99.48;98392.34;5065384;28;20324;-69
2021/11/30 05:25:00;;;;;;;24.67;12.45;;;;;;;2.23;99.24;98408.81;5065389;28;20070;-69
2021/11/30 05:27:27;;;;;;;21.70;11.88;;;;;;;2.29;99.12;98402.78;5065475;28;20101;-69
2021/11/30 05:29:52;;;;;;;20.38;11.23;;;;;;;2.33;99.16;98401.97;5065587;28;20044;-69
2021/11/30 05:32:19;;;;;;;18.85;11.73;;;;;;;2.29;98.82;98392.41;5065352;28;20032;-69
2021/11/30 05:34:44;;;;;;;23.67;10.68;;;;;;;2.35;98.91;98408.06;5065191;28;20021;-69
2021/11/30 05:37:10;;;;;;;19.95;10.43;;;;;;;2.35;98.92;98405.44;5065141;28;20339;-69
2021/11/30 05:39:35;;;;;;;21.90;10.38;;;;;;;2.34;98.94;98413.22;5065108;28;20017;-70
2021/11/30 05:42:00;;;;;;;23.40;10.88;;;;;;;2.36;98.76;98407.19;5065049;28;20132;-70
2021/11/30 05:44:26;;;;;;;20.67;10.10;;;;;;;2.40;98.54;98414.13;5065050;28;20024;-70
2021/11/30 05:46:51;;;;;;;22.05;10.50;;;;;;;2.37;98.69;98413.25;5064869;28;20020;-70
2021/11/30 05:49:17;;;;;;;18.30;9.52;;;;;;;2.29;98.69;98410.59;5064902;28;20025;-70
2021/11/30 05:51:43;;;;;;;19.05;10.95;;;;;;;2.27;99.20;98399.31;5065126;28;20027;-69
2021/11/30 05:54:09;;;;;;;19.23;9.77;;;;;;;2.28;99.09;98411.44;5064725;28;20024;-69
2021/11/30 05:56:35;;;;;;;18.35;10.32;;;;;;;2.37;99.05;98400.28;5064795;28;20044;-70
2021/11/30 05:59:00;;;;;;;17.15;10.07;;;;;;;2.33;99.24;98401.97;5064748;28;20029;-69
2021/11/30 06:01:31;;;;;;;20.65;11.50;;;;;;;2.34;99.13;98401.09;5064922;28;20025;-69
2021/11/30 06:03:58;;;;;;;16.42;10.40;;;;;;;2.33;99.08;98399.38;5063554;28;20051;-69
2021/11/30 06:06:25;;;;;;;21.17;10.18;;;;;;;2.39;98.92;98407.22;5063402;28;20221;-69
2021/11/30 06:08:50;;;;;;;18.95;10.82;;;;;;;2.44;98.91;98391.69;5064555;28;20016;-69
2021/11/30 06:11:17;;;;;;;19.10;10.25;;;;;;;2.52;98.53;98396.06;5064775;28;20028;-69
2021/11/30 06:13:42;;;;;;;17.55;10.10;;;;;;;2.58;98.55;98398.72;5064732;28;20016;-69
2021/11/30 06:16:07;;;;;;;21.45;10.60;;;;;;;2.56;98.38;98378.78;5064238;28;20226;-69
2021/11/30 06:18:32;;;;;;;21.33;10.15;;;;;;;2.48;98.12;98376.13;5064365;28;20031;-69
2021/11/30 06:20:58;;;;;;;22.75;9.85;;;;;;;2.44;98.34;98382.16;5064331;28;20343;-69
2021/11/30 06:23:24;;;;;;;15.02;8.55;;;;;;;2.51;98.41;98386.53;5064576;28;20182;-69
2021/11/30 06:25:49;;;;;;;22.38;9.15;;;;;;;2.43;97.90;98375.22;5064162;28;20249;-69
2021/11/30 06:28:14;;;;;;;16.75;9.45;;;;;;;2.37;98.40;98369.97;5064216;28;20096;-69
2021/11/30 06:30:40;;;;;;;18.50;10.50;;;;;;;2.33;98.66;98363.00;5064148;28;20020;-69
2021/11/30 06:33:05;;;;;;;22.98;10.02;;;;;;;2.35;99.23;98356.13;5064160;28;20016;-70
2021/11/30 06:35:30;;;;;;;16.38;9.43;;;;;;;2.35;99.24;98361.31;5064115;28;20027;-69
2021/11/30 06:37:56;;;;;;;20.15;9.90;;;;;;;2.31;99.07;98367.31;5064041;28;20021;-69
2021/11/30 06:40:21;;;;;;;16.88;9.43;;;;;;;2.44;99.02;98366.59;5064063;28;20221;-69
2021/11/30 06:42:47;;;;;;;23.23;9.80;;;;;;;2.33;98.84;98368.19;5063990;28;20027;-69
2021/11/30 06:45:12;;;;;;;15.82;9.55;;;;;;;2.30;98.97;98357.78;5063961;28;20024;-69
2021/11/30 06:47:38;;;;;;;17.65;9.77;;;;;;;2.23;99.35;98346.50;5063874;28;20017;-69
2021/11/30 06:50:04;;;;;;;19.30;10.98;;;;;;;2.22;99.58;98362.06;5064194;28;20021;-69
2021/11/30 06:52:30;;;;;;;17.25;9.05;;;;;;;2.14;99.36;98353.31;5063852;28;20024;-69
2021/11/30 06:54:55;;;;;;;18.40;9.82;;;;;;;2.04;99.68;98359.28;5063974;28;20032;-69
2021/11/30 06:57:22;;;;;;;16.42;10.25;;;;;;;2.10;99.75;98356.75;5063854;28;20127;-69
2021/11/30 06:59:48;;;;;;;19.23;9.90;;;;;;;2.13;100.00;98354.19;5063779;28;20023;-69
2021/11/30 07:02:14;;;;;;;18.13;10.00;;;;;;;2.10;100.00;98348.97;5063807;28;20028;-69
2021/11/30 07:04:43;;;;;;;17.05;9.38;;;;;;;2.08;99.94;98361.03;5063704;28;20048;-69
2021/11/30 07:10:23;;;;;;;13.77;8.98;;;;;;;2.12;100.00;98360.25;5063783;28;20255;-69
2021/11/30 07:13:02;;;;;;;18.30;9.18;;;;;;;2.10;100.00;98365.41;5063948;28;20021;-69
2021/11/30 07:15:28;;;;;;;18.17;9.60;;;;;;;2.10;100.00;98367.13;5063942;28;20021;-69
2021/11/30 07:17:53;;;;;;;16.88;9.00;;;;;;;2.08;100.00;98361.03;5064299;28;20431;-69
2021/11/30 07:20:18;;;;;;;15.20;8.43;;;;;;;2.04;100.00;98354.97;5067768;28;20021;-69
2021/11/30 07:22:44;;;;;;;15.98;9.50;;;;;;;2.06;100.00;98378.34;5067699;28;20078;-69
2021/11/30 07:25:09;;;;;;;19.95;8.90;;;;;;;2.00;100.00;98367.91;5067659;28;20024;-69
2021/11/30 07:27:34;;;;;;;15.50;8.15;;;;;;;1.97;100.00;98362.69;5067793;28;20074;-69
2021/11/30 07:30:00;;;;;;;16.27;9.27;;;;;;;2.01;100.00;98359.25;5067527;28;20044;-69
2021/11/30 07:32:25;;;;;;;12.90;7.95;;;;;;;1.98;100.00;98354.03;5067563;28;20080;-69
2021/11/30 07:34:50;;;;;;;15.90;8.20;;;;;;;2.04;100.00;98369.66;5067465;28;20029;-69
2021/11/30 07:37:16;;;;;;;13.40;7.57;;;;;;;2.08;100.00;98363.66;5067685;28;20021;-69
2021/11/30 07:39:42;;;;;;;14.50;7.43;;;;;;;2.10;100.00;98373.22;5067641;28;20317;-69
2021/11/30 07:42:07;;;;;;;14.60;7.20;;;;;;;2.04;100.00;98364.47;5067362;28;20029;-69
2021/11/30 07:44:33;;;;;;;14.43;8.55;;;;;;;2.10;100.00;98374.91;5067545;28;20024;-69
2021/11/30 07:46:58;;;;;;;13.15;7.13;;;;;;;2.03;100.00;98367.94;5067183;28;20055;-69
2021/11/30 07:49:23;;;;;;;12.55;7.13;;;;;;;2.05;100.00;98364.50;5067202;28;20028;-69
2021/11/30 07:51:49;;;;;;;11.45;7.15;;;;;;;2.02;100.00;98372.25;5067124;28;20232;-69
2021/11/30 07:54:14;;;;;;;10.75;6.32;;;;;;;2.07;100.00;98367.09;5064054;28;20036;-69
2021/11/30 07:56:40;;;;;;;12.75;7.13;;;;;;;2.01;100.00;98374.81;5056797;28;20063;-69
2021/11/30 07:59:05;;;;;;;15.38;7.82;;;;;;;1.94;100.00;98373.03;5053974;28;20021;-69
2021/11/30 08:01:31;;;;;;;13.20;7.60;;;;;;;2.00;100.00;98379.13;5052704;28;20029;-69
2021/11/30 08:03:56;;;;;;;11.45;6.68;;;;;;;2.03;100.00;98380.91;5055804;28;20040;-69
2021/11/30 08:06:22;;;;;;;13.95;7.43;;;;;;;2.08;100.00;98371.44;5057477;28;20055;-69
2021/11/30 08:08:50;;;;;;;12.02;7.63;;;;;;;2.07;100.00;98370.59;5055746;28;20083;-69
2021/11/30 08:11:15;;;;;;;11.82;6.82;;;;;;;2.10;100.00;98360.22;5056290;28;20044;-69
2021/11/30 08:13:41;;;;;;;13.80;6.55;;;;;;;2.11;100.00;98364.56;5057417;28;20225;-69
2021/11/30 08:16:06;;;;;;;15.48;7.13;;;;;;;2.14;100.00;98366.31;5054375;28;20080;-69
2021/11/30 08:18:32;;;;;;;10.32;6.05;;;;;;;2.12;100.00;98361.09;5045112;28;20033;-69
2021/11/30 08:20:57;;;;;;;10.10;6.38;;;;;;;2.14;100.00;98366.31;5045722;28;20056;-69
2021/11/30 08:23:22;;;;;;;9.55;5.65;;;;;;;2.13;100.00;98359.38;5048348;28;20048;-69
2021/11/30 08:25:48;;;;;;;12.00;5.95;;;;;;;2.11;100.00;98368.88;5055774;28;20032;-69
2021/11/30 08:28:13;;;;;;;11.30;6.00;;;;;;;2.07;100.00;98377.50;5054133;28;20021;-69
2021/11/30 08:30:39;;;;;;;8.70;5.93;;;;;;;2.00;100.00;98373.94;5055272;28;20025;-68
2021/11/30 08:33:05;;;;;;;10.57;6.07;;;;;;;2.09;100.00;98368.84;5055234;28;20264;-68
2021/11/30 08:35:30;;;;;;;9.95;6.20;;;;;;;2.10;100.00;98370.63;5054080;28;20316;-68
2021/11/30 08:37:56;;;;;;;10.48;5.53;;;;;;;2.07;100.00;98375.78;5045400;28;20021;-68
2021/11/30 08:40:21;;;;;;;9.70;6.18;;;;;;;2.11;100.00;98371.47;5052324;28;20025;-68
2021/11/30 08:42:47;;;;;;;10.32;5.75;;;;;;;2.10;100.00;98365.41;5055860;28;20037;-68
2021/11/30 08:45:12;;;;;;;11.10;6.00;;;;;;;2.09;100.00;98366.25;5064430;28;20021;-68
2021/11/30 08:47:39;;;;;;;10.45;5.05;;;;;;;2.07;100.00;98356.72;5064749;28;20263;-68
2021/11/30 08:50:16;;;;;;;7.80;5.03;;;;;;;2.15;100.00;98360.25;5064775;28;20017;-68
2021/11/30 08:52:42;;;;;;;7.72;4.75;;;;;;;2.25;100.00;98362.09;5063263;28;20247;-68
2021/11/30 08:55:08;;;;;;;8.38;5.25;;;;;;;2.17;100.00;98361.13;5064709;28;20025;-68
2021/11/30 08:57:34;;;;;;;7.63;4.55;;;;;;;2.17;100.00;98359.41;5061848;28;20296;-68
2021/11/30 09:00:00;;;;;;;7.43;4.95;;;;;;;2.22;100.00;98365.50;5064571;28;20029;-68
2021/11/30 09:02:26;;;;;;;7.80;4.63;;;;;;;2.19;100.00;98354.25;5064814;28;20024;-68
2021/11/30 09:04:51;;;;;;;7.75;4.72;;;;;;;2.18;100.00;98352.47;5064421;28;20056;-68
2021/11/30 09:07:17;;;;;;;7.40;5.20;;;;;;;2.23;100.00;98356.88;5064644;28;20016;-68
2021/11/30 09:09:47;;;;;;;9.38;5.28;;;;;;;2.25;100.00;98341.31;5053227;28;20029;-68
2021/11/30 09:12:14;;;;;;;9.25;4.75;;;;;;;2.27;100.00;98347.38;5044723;28;20022;-68
2021/11/30 09:14:39;;;;;;;6.90;4.38;;;;;;;2.32;100.00;98345.69;5044689;28;20029;-68
2021/11/30 09:17:05;;;;;;;7.97;4.78;;;;;;;2.33;100.00;98341.34;5044515;28;20279;-68
2021/11/30 09:19:31;;;;;;;6.95;4.15;;;;;;;2.29;100.00;98345.69;5044881;28;20025;-68
2021/11/30 09:21:56;;;;;;;6.80;4.32;;;;;;;2.34;100.00;98340.53;5044835;28;20052;-68
2021/11/30 09:24:21;;;;;;;8.02;4.43;;;;;;;2.27;100.00;98334.41;5044147;28;20025;-67
2021/11/30 09:26:47;;;;;;;7.47;4.60;;;;;;;2.22;100.00;98333.50;5044675;28;20021;-68
2021/11/30 09:29:13;;;;;;;7.15;4.45;;;;;;;2.25;100.00;98333.53;5044417;28;20021;-68
2021/11/30 09:31:39;;;;;;;11.02;4.85;;;;;;;2.21;100.00;98321.34;5044454;28;20084;-68
2021/11/30 09:34:04;;;;;;;10.13;4.78;;;;;;;2.21;100.00;98321.34;5044355;28;20025;-68
2021/11/30 09:36:32;;;;;;;7.88;4.50;;;;;;;2.26;100.00;98330.06;5043895;28;20028;-68
2021/11/30 09:38:59;;;;;;;9.15;4.78;;;;;;;2.29;100.00;98317.09;5044246;28;20095;-68
2021/11/30 09:41:25;;;;;;;8.50;4.93;;;;;;;2.33;100.00;98311.06;5043587;28;20073;-68
2021/11/30 09:43:51;;;;;;;9.80;5.30;;;;;;;2.39;100.00;98307.66;5044191;28;20025;-68
2021/11/30 09:46:16;;;;;;;9.00;5.15;;;;;;;2.41;100.00;98309.41;5044076;28;20084;-68
2021/11/30 09:48:42;;;;;;;7.68;5.10;;;;;;;2.48;100.00;98313.78;5043683;28;20021;-68
2021/11/30 09:51:08;;;;;;;9.10;4.57;;;;;;;2.48;100.00;98313.78;5044050;28;20067;-68
2021/11/30 09:53:33;;;;;;;8.13;4.53;;;;;;;2.57;100.00;98325.97;5043987;28;20029;-68
2021/11/30 09:55:59;;;;;;;7.05;4.68;;;;;;;2.50;100.00;98319.84;5043932;28;20024;-68
2021/11/30 09:58:25;;;;;;;9.00;5.55;;;;;;;2.48;100.00;98316.41;5044175;28;20064;-68
2021/11/30 10:00:52;;;;;;;11.60;6.20;;;;;;;2.50;100.00;98325.03;5044105;28;20063;-68
2021/11/30 10:03:20;;;;;;;8.27;5.45;;;;;;;2.51;100.00;98316.41;5043576;28;20025;-68
2021/11/30 10:05:45;;;;;;;9.25;5.40;;;;;;;2.54;100.00;98311.25;5043764;28;20021;-68
2021/11/30 10:08:46;;;;;;;8.50;4.47;;;;;;;2.52;100.00;98320.75;5043670;28;20024;-68
2021/11/30 10:11:30;;;;;;;8.27;5.32;;;;;;;2.50;100.00;98309.47;5043461;28;20041;-68
2021/11/30 10:14:14;;;;;;;8.55;5.10;;;;;;;2.52;100.00;98302.56;5043644;28;20025;-68
2021/11/30 10:17:00;;;;;;;8.50;5.22;;;;;;;2.54;100.00;98306.06;5042985;28;20029;-68
2021/11/30 10:19:29;;;;;;;10.40;5.43;;;;;;;2.48;100.00;98295.63;5043395;28;20029;-68
2021/11/30 10:21:55;;;;;;;7.85;4.65;;;;;;;2.47;100.00;98298.19;5043754;28;20026;-68
2021/11/30 10:24:21;;;;;;;10.60;5.15;;;;;;;2.45;100.00;98299.91;5043689;28;20029;-68
2021/11/30 10:26:46;;;;;;;7.85;3.80;;;;;;;2.45;100.00;98290.41;5043565;28;20036;-68
2021/11/30 10:29:15;;;;;;;7.57;4.63;;;;;;;2.50;100.00;98293.03;5048271;28;20017;-68
2021/11/30 10:31:43;;;;;;;6.40;4.40;;;;;;;2.42;100.00;98300.75;5070126;28;20043;-68
2021/11/30 10:34:15;;;;;;;6.28;4.18;;;;;;;2.41;100.00;98283.44;5077853;28;20020;-68
2021/11/30 10:36:48;;;;;;;6.63;4.32;;;;;;;2.36;100.00;98282.53;5063253;28;20027;-68
2021/11/30 10:39:29;;;;;;;5.90;3.53;;;;;;;2.42;100.00;98284.28;5075767;28;20020;-68
2021/11/30 10:42:12;;;;;;;6.18;3.72;;;;;;;2.38;100.00;98273.03;5082816;28;20026;-68
2021/11/30 10:44:38;;;;;;;10.50;3.90;;;;;;;2.43;100.00;98286.06;5083177;28;20025;-68
2021/11/30 10:47:15;;;;;;;8.63;4.88;;;;;;;2.37;100.00;98286.88;5076503;28;20387;-68
2021/11/30 10:49:56;;;;;;;5.55;3.42;;;;;;;2.46;100.00;98281.72;5054241;28;20037;-68
2021/11/30 10:52:33;;;;;;;5.68;3.83;;;;;;;2.43;100.00;98281.72;5051157;28;20079;-68
2021/11/30 10:55:12;;;;;;;5.35;3.50;;;;;;;2.41;100.00;98275.66;5051457;28;20056;-68
2021/11/30 10:57:38;;;;;;;5.30;3.83;;;;;;;2.36;100.00;98274.75;5053666;28;20024;-68
2021/11/30 11:00:10;;;;;;;5.68;3.70;;;;;;;2.37;100.00;98270.44;5053573;28;20020;-68
2021/11/30 11:02:49;;;;;;;4.72;3.08;;;;;;;2.38;100.00;98267.84;5053159;28;20027;-68
2021/11/30 11:05:26;;;;;;;6.00;3.83;;;;;;;2.43;100.00;98266.13;5052803;28;20032;-68
2021/11/30 11:08:05;;;;;;;6.93;4.10;;;;;;;2.38;100.00;98261.78;5053350;28;20025;-68
2021/11/30 11:10:32;;;;;;;6.82;4.10;;;;;;;2.40;100.00;98260.91;5053545;28;20193;-68
2021/11/30 11:13:20;;;;;;;6.70;3.72;;;;;;;2.46;100.00;98262.72;5053431;28;20220;-68
2021/11/30 11:15:46;;;;;;;6.35;3.28;;;;;;;2.44;99.95;98267.88;5051329;28;20029;-68
2021/11/30 11:18:18;;;;;;;6.53;3.85;;;;;;;2.43;100.00;98271.31;5055921;28;20423;-68
2021/11/30 11:20:45;;;;;;;6.95;4.18;;;;;;;2.43;100.00;98273.06;5053473;28;20231;-68
2021/11/30 11:23:24;;;;;;;6.10;3.60;;;;;;;2.38;100.00;98261.78;5056573;28;20020;-68
2021/11/30 11:25:53;;;;;;;4.47;3.30;;;;;;;2.45;100.00;98266.13;5062686;28;20025;-68
2021/11/30 11:28:20;;;;;;;7.97;4.05;;;;;;;2.45;99.79;98264.44;5062875;28;20309;-68
2021/11/30 11:30:46;;;;;;;5.45;3.33;;;;;;;2.38;100.00;98252.28;5056472;28;20024;-68
2021/11/30 11:33:11;;;;;;;5.15;3.13;;;;;;;2.41;99.70;98251.41;5051079;28;20036;-68
2021/11/30 11:35:39;;;;;;;5.78;3.50;;;;;;;2.42;100.00;98254.00;5052663;28;20039;-68